createdAt,value
2022-10-16T00:01:41.562Z,14.56
2022-10-16T00:04:09.908Z,14.66
2022-10-16T00:06:36.892Z,14.49
2022-10-16T00:09:04.216Z,14.78
2022-10-16T00:11:38.692Z,14.81
2022-10-16T00:14:12.972Z,14.77
2022-10-16T00:16:40.493Z,14.83
2022-10-16T00:19:07.852Z,14.95
2022-10-16T00:21:35.262Z,14.98
2022-10-16T00:24:11.968Z,14.94
2022-10-16T00:26:40.449Z,15.01
2022-10-16T00:29:09.660Z,14.80
2022-10-16T00:31:37.094Z,14.84
2022-10-16T00:34:04.137Z,14.79
2022-10-16T00:36:31.747Z,14.96
2022-10-16T00:41:34.366Z,14.92
2022-10-16T00:44:25.057Z,14.89
2022-10-16T00:46:52.402Z,15.03
2022-10-16T00:49:21.661Z,14.69
2022-10-16T00:51:54.862Z,14.64
2022-10-16T00:54:30.431Z,14.79
2022-10-16T00:57:05.954Z,14.85
2022-10-16T00:59:42.512Z,14.89
2022-10-16T01:02:16.258Z,14.75
2022-10-16T01:04:55.001Z,14.97
2022-10-16T01:08:06.715Z,15.04
2022-10-16T01:10:59.226Z,15.19
2022-10-16T01:13:42.415Z,15.20
2022-10-16T01:16:25.288Z,15.24
2022-10-16T01:19:22.671Z,15.28
2022-10-16T01:21:51.983Z,15.31
2022-10-16T01:27:34.036Z,15.36
2022-10-16T01:30:26.404Z,15.34
2022-10-16T01:33:43.210Z,15.39
2022-10-16T01:36:36.378Z,15.39
2022-10-16T01:39:06.174Z,15.40
2022-10-16T01:41:40.231Z,15.43
2022-10-16T01:44:22.240Z,15.53
2022-10-16T01:46:53.630Z,15.57
2022-10-16T01:49:25.620Z,15.50
2022-10-16T01:51:58.757Z,15.49
2022-10-16T01:54:30.475Z,15.48
2022-10-16T01:56:59.028Z,15.43
2022-10-16T01:59:30.531Z,15.53
2022-10-16T02:02:04.815Z,15.54
2022-10-16T02:04:55.733Z,15.53
2022-10-16T02:07:23.717Z,15.56
2022-10-16T02:09:50.992Z,15.60
2022-10-16T02:12:33.455Z,15.67
2022-10-16T02:15:00.452Z,15.76
2022-10-16T02:17:27.944Z,15.75
2022-10-16T02:19:57.797Z,15.75
2022-10-16T02:22:40.265Z,15.74
2022-10-16T02:25:40.994Z,15.77
2022-10-16T02:28:27.184Z,15.80
2022-10-16T02:31:09.499Z,15.79
2022-10-16T02:33:39.701Z,15.81
2022-10-16T02:36:07.919Z,15.81
2022-10-16T02:38:35.703Z,15.81
2022-10-16T02:41:02.898Z,15.84
2022-10-16T02:43:30.393Z,15.85
2022-10-16T02:45:57.324Z,15.81
2022-10-16T02:48:24.264Z,15.76
2022-10-16T02:50:52.016Z,15.82
2022-10-16T02:53:18.950Z,15.75
2022-10-16T02:55:45.975Z,15.80
2022-10-16T02:58:12.894Z,15.83
2022-10-16T03:00:39.874Z,15.80
2022-10-16T03:03:06.878Z,15.81
2022-10-16T03:05:33.940Z,15.83
2022-10-16T03:08:01.633Z,15.82
2022-10-16T03:10:28.960Z,15.72
2022-10-16T03:12:55.874Z,15.77
2022-10-16T03:15:22.818Z,15.71
2022-10-16T03:17:50.003Z,15.71
2022-10-16T03:20:16.918Z,15.73
2022-10-16T03:22:43.801Z,15.61
2022-10-16T03:25:10.764Z,15.56
2022-10-16T03:27:37.766Z,15.60
2022-10-16T03:30:05.298Z,15.12
2022-10-16T03:32:32.303Z,15.24
2022-10-16T03:34:59.338Z,15.24
2022-10-16T03:37:26.466Z,15.21
2022-10-16T03:39:53.930Z,15.22
2022-10-16T03:42:21.007Z,15.19
2022-10-16T03:44:47.942Z,15.16
2022-10-16T03:47:14.852Z,15.16
2022-10-16T03:49:41.811Z,15.15
2022-10-16T03:52:08.767Z,15.08
2022-10-16T03:54:35.738Z,15.12
2022-10-16T03:57:02.692Z,15.11
2022-10-16T03:59:29.627Z,15.09
2022-10-16T04:01:56.603Z,15.06
2022-10-16T04:04:23.518Z,15.07
2022-10-16T04:06:50.414Z,15.07
2022-10-16T04:09:17.405Z,15.15
2022-10-16T04:11:44.472Z,15.08
2022-10-16T04:14:11.425Z,15.07
2022-10-16T04:16:38.362Z,15.18
2022-10-16T04:19:05.433Z,15.13
2022-10-16T04:21:32.422Z,15.23
2022-10-16T04:23:59.356Z,15.18
2022-10-16T04:26:26.287Z,15.16
2022-10-16T04:28:53.393Z,14.94
2022-10-16T04:31:20.539Z,14.89
2022-10-16T04:33:47.840Z,14.89
2022-10-16T04:36:14.920Z,14.82
2022-10-16T04:38:41.846Z,14.93
2022-10-16T04:41:09.376Z,14.78
2022-10-16T04:43:36.486Z,14.74
2022-10-16T04:46:07.757Z,14.75
2022-10-16T04:48:34.651Z,14.85
2022-10-16T04:51:01.994Z,14.81
2022-10-16T04:53:28.997Z,14.67
2022-10-16T04:55:56.976Z,14.61
2022-10-16T04:58:24.032Z,14.37
2022-10-16T05:00:50.940Z,14.22
2022-10-16T05:03:17.970Z,14.17
2022-10-16T05:05:46.836Z,14.09
2022-10-16T05:08:15.952Z,14.28
2022-10-16T05:10:45.356Z,14.40
2022-10-16T05:13:12.913Z,14.40
2022-10-16T05:15:40.233Z,14.42
2022-10-16T05:18:07.195Z,14.48
2022-10-16T05:20:34.241Z,14.43
2022-10-16T05:23:01.296Z,14.50
2022-10-16T05:25:29.718Z,14.49
2022-10-16T05:27:57.877Z,14.48
2022-10-16T05:30:24.920Z,14.25
2022-10-16T05:32:52.470Z,14.36
2022-10-16T05:35:21.820Z,14.24
2022-10-16T05:37:49.089Z,14.07
2022-10-16T05:40:16.950Z,13.95
2022-10-16T05:42:43.917Z,13.96
2022-10-16T05:45:12.973Z,13.98
2022-10-16T05:47:40.885Z,14.09
2022-10-16T05:50:08.528Z,14.18
2022-10-16T05:52:35.533Z,14.14
2022-10-16T05:55:02.750Z,14.17
2022-10-16T05:57:29.913Z,14.32
2022-10-16T05:59:57.183Z,14.45
2022-10-16T06:02:24.178Z,14.56
2022-10-16T06:04:54.771Z,14.64
2022-10-16T06:07:22.903Z,14.56
2022-10-16T06:09:52.320Z,14.74
2022-10-16T06:12:20.323Z,14.89
2022-10-16T06:14:50.727Z,14.62
2022-10-16T06:17:17.682Z,14.95
2022-10-16T06:19:44.735Z,15.03
2022-10-16T06:22:11.674Z,15.01
2022-10-16T06:24:38.618Z,15.02
2022-10-16T06:27:06.013Z,15.07
2022-10-16T06:29:33.127Z,15.16
2022-10-16T06:32:00.121Z,15.19
2022-10-16T06:34:27.043Z,15.17
2022-10-16T06:36:54.034Z,15.21
2022-10-16T06:39:20.956Z,15.28
2022-10-16T06:41:48.054Z,15.19
2022-10-16T06:44:14.996Z,15.38
2022-10-16T06:46:42.175Z,15.32
2022-10-16T06:49:09.362Z,15.36
2022-10-16T06:51:40.507Z,15.43
2022-10-16T06:54:10.280Z,15.52
2022-10-16T06:56:37.623Z,15.47
2022-10-16T06:59:08.056Z,15.63
2022-10-16T07:01:34.967Z,15.70
2022-10-16T07:04:03.145Z,15.67
2022-10-16T07:06:34.779Z,15.76
2022-10-16T07:09:10.702Z,15.72
2022-10-16T07:11:40.607Z,15.88
2022-10-16T07:14:21.305Z,15.89
2022-10-16T07:16:49.176Z,15.85
2022-10-16T07:19:18.501Z,15.97
2022-10-16T07:21:45.871Z,16.06
2022-10-16T07:24:16.668Z,16.08
2022-10-16T07:26:47.001Z,16.04
2022-10-16T07:29:18.860Z,15.89
2022-10-16T07:31:49.822Z,15.97
2022-10-16T07:34:20.215Z,15.97
2022-10-16T07:36:51.392Z,16.30
2022-10-16T07:39:18.801Z,16.20
2022-10-16T07:41:46.074Z,16.17
2022-10-16T07:44:13.025Z,16.44
2022-10-16T07:46:40.008Z,16.52
2022-10-16T07:49:07.074Z,16.70
2022-10-16T07:51:34.095Z,16.68
2022-10-16T07:54:01.034Z,16.77
2022-10-16T07:56:28.011Z,16.61
2022-10-16T07:58:55.072Z,16.54
2022-10-16T08:01:22.352Z,16.51
2022-10-16T08:03:52.692Z,16.55
2022-10-16T08:06:26.673Z,16.71
2022-10-16T08:08:56.887Z,16.66
2022-10-16T08:11:24.570Z,16.77
2022-10-16T08:13:51.498Z,16.88
2022-10-16T08:16:18.840Z,16.88
2022-10-16T08:18:45.753Z,16.84
2022-10-16T08:21:24.791Z,16.95
2022-10-16T08:23:58.045Z,17.00
2022-10-16T08:26:27.523Z,16.97
2022-10-16T08:28:55.857Z,16.81
2022-10-16T08:31:24.026Z,17.06
2022-10-16T08:33:51.092Z,17.03
2022-10-16T08:36:18.254Z,17.17
2022-10-16T08:38:48.051Z,17.28
2022-10-16T08:41:38.170Z,17.26
2022-10-16T08:44:54.606Z,17.28
2022-10-16T08:47:52.107Z,17.41
2022-10-16T08:50:32.597Z,17.59
2022-10-16T08:52:59.848Z,17.70
2022-10-16T08:55:54.013Z,17.55
2022-10-16T08:58:27.758Z,17.79
2022-10-16T09:01:05.799Z,17.89
2022-10-16T09:04:11.422Z,18.09
2022-10-16T09:07:01.272Z,18.23
2022-10-16T09:10:03.553Z,18.22
2022-10-16T09:12:43.496Z,18.53
2022-10-16T09:15:42.335Z,18.61
2022-10-16T09:18:45.813Z,18.43
2022-10-16T09:21:33.064Z,18.45
2022-10-16T09:24:27.132Z,18.44
2022-10-16T09:26:56.172Z,18.95
2022-10-16T09:29:26.240Z,18.75
2022-10-16T09:31:55.942Z,18.47
2022-10-16T09:34:37.733Z,18.34
2022-10-16T09:37:12.682Z,18.42
2022-10-16T09:39:55.323Z,18.44
2022-10-16T09:42:37.272Z,18.47
2022-10-16T09:45:05.620Z,18.71
2022-10-16T09:47:38.378Z,18.64
2022-10-16T09:50:29.709Z,18.72
2022-10-16T09:53:18.533Z,19.05
2022-10-16T09:55:55.194Z,18.87
2022-10-16T09:58:25.798Z,18.88
2022-10-16T10:00:55.775Z,19.25
2022-10-16T10:03:40.627Z,19.45
2022-10-16T10:06:27.181Z,19.72
2022-10-16T10:09:15.713Z,20.01
2022-10-16T10:15:05.880Z,19.96
2022-10-16T10:17:32.943Z,19.61
2022-10-16T10:20:35.193Z,19.43
2022-10-16T10:23:26.619Z,19.27
2022-10-16T10:26:19.378Z,19.37
2022-10-16T10:29:09.471Z,19.36
2022-10-16T10:32:08.147Z,19.35
2022-10-16T10:35:35.680Z,19.17
2022-10-16T10:38:53.674Z,19.20
2022-10-16T10:42:13.466Z,19.23
2022-10-16T10:45:23.974Z,19.41
2022-10-16T10:48:04.385Z,19.42
2022-10-16T10:50:58.487Z,19.66
2022-10-16T10:53:46.745Z,20.22
2022-10-16T10:56:20.609Z,20.18
2022-10-16T10:59:10.392Z,20.48
2022-10-16T11:02:11.713Z,20.71
2022-10-16T11:05:28.828Z,20.58
2022-10-16T11:08:14.504Z,20.26
2022-10-16T11:11:00.934Z,20.14
2022-10-16T11:13:39.221Z,19.85
2022-10-16T11:16:32.783Z,20.07
2022-10-16T11:19:38.365Z,19.98
2022-10-16T11:22:08.270Z,20.06
2022-10-16T11:24:53.929Z,19.86
2022-10-16T11:27:45.442Z,20.04
2022-10-16T11:30:34.453Z,19.95
2022-10-16T11:33:19.252Z,19.95
2022-10-16T11:36:43.092Z,19.86
2022-10-16T11:39:27.300Z,19.64
2022-10-16T11:42:32.701Z,19.83
2022-10-16T11:45:33.500Z,20.65
2022-10-16T11:48:14.791Z,21.11
2022-10-16T11:50:54.098Z,21.54
2022-10-16T11:54:00.277Z,21.76
2022-10-16T11:56:28.716Z,21.63
2022-10-16T11:59:39.543Z,21.58
2022-10-16T12:02:31.696Z,21.40
2022-10-16T12:05:39.273Z,21.49
2022-10-16T12:08:16.016Z,21.29
2022-10-16T12:10:47.731Z,21.27
2022-10-16T12:13:37.308Z,21.76
2022-10-16T12:16:13.149Z,21.52
2022-10-16T12:18:47.046Z,21.84
2022-10-16T12:21:20.304Z,21.54
2022-10-16T12:23:55.071Z,21.54
2022-10-16T12:26:33.387Z,21.70
2022-10-16T12:29:43.914Z,21.89
2022-10-16T12:32:46.378Z,22.36
2022-10-16T12:35:45.004Z,22.26
2022-10-16T12:38:36.359Z,22.50
2022-10-16T12:41:11.684Z,22.55
2022-10-16T12:43:46.896Z,22.16
2022-10-16T12:46:13.683Z,22.30
2022-10-16T12:49:02.260Z,22.57
2022-10-16T12:51:32.458Z,22.43
2022-10-16T12:54:29.290Z,22.45
2022-10-16T12:57:45.726Z,22.21
2022-10-16T13:00:43.366Z,22.25
2022-10-16T13:04:12.795Z,22.65
2022-10-16T13:07:19.139Z,22.57
2022-10-16T13:10:04.340Z,22.37
2022-10-16T13:13:46.786Z,22.35
2022-10-16T13:16:28.458Z,22.69
2022-10-16T13:22:34.907Z,22.47
2022-10-16T13:25:47.989Z,22.61
2022-10-16T13:28:18.024Z,22.62
2022-10-16T13:30:59.086Z,22.78
2022-10-16T13:33:41.447Z,22.97
2022-10-16T13:36:25.982Z,22.65
2022-10-16T13:39:21.903Z,22.85
2022-10-16T13:44:51.087Z,22.17
2022-10-16T13:47:30.788Z,22.10
2022-10-16T13:50:19.916Z,21.93
2022-10-16T13:52:46.872Z,22.03
2022-10-16T13:55:22.821Z,22.16
2022-10-16T13:57:49.738Z,21.86
2022-10-16T14:00:31.255Z,21.81
2022-10-16T14:03:16.158Z,21.86
2022-10-16T14:05:54.215Z,21.40
2022-10-16T14:08:22.357Z,21.47
2022-10-16T14:10:57.003Z,21.62
2022-10-16T14:13:45.206Z,21.66
2022-10-16T14:16:24.433Z,21.52
2022-10-16T14:19:06.279Z,21.52
2022-10-16T14:21:35.139Z,21.51
2022-10-16T14:24:15.067Z,21.49
2022-10-16T14:26:50.491Z,21.30
2022-10-16T14:29:21.889Z,21.36
2022-10-16T14:32:01.850Z,21.27
2022-10-16T14:34:41.003Z,21.38
2022-10-16T14:37:28.625Z,21.31
2022-10-16T14:39:57.554Z,21.49
2022-10-16T14:42:26.465Z,21.68
2022-10-16T14:44:55.514Z,21.48
2022-10-16T14:47:27.815Z,21.57
2022-10-16T14:49:56.968Z,21.38
2022-10-16T14:52:24.143Z,21.32
2022-10-16T14:54:55.514Z,21.21
2022-10-16T14:57:31.876Z,20.92
2022-10-16T14:59:58.870Z,20.73
2022-10-16T15:02:36.029Z,20.73
2022-10-16T15:05:25.454Z,20.67
2022-10-16T15:07:56.344Z,20.47
2022-10-16T15:10:26.789Z,20.43
2022-10-16T15:12:54.074Z,20.23
2022-10-16T15:15:23.965Z,20.33
2022-10-16T15:17:57.610Z,20.34
2022-10-16T15:20:39.452Z,20.23
2022-10-16T15:23:22.984Z,19.97
2022-10-16T15:25:55.150Z,19.80
2022-10-16T15:28:25.286Z,19.81
2022-10-16T15:30:55.748Z,19.86
2022-10-16T15:33:38.931Z,19.67
2022-10-16T15:36:08.741Z,19.59
2022-10-16T15:38:36.057Z,19.49
2022-10-16T15:41:03.128Z,19.16
2022-10-16T15:43:30.066Z,19.18
2022-10-16T15:46:09.530Z,19.03
2022-10-16T15:48:36.459Z,18.96
2022-10-16T15:51:08.771Z,18.94
2022-10-16T15:53:36.559Z,18.92
2022-10-16T15:56:05.980Z,18.85
2022-10-16T15:58:33.188Z,18.69
2022-10-16T16:01:02.501Z,18.55
2022-10-16T16:03:30.580Z,18.37
2022-10-16T16:05:57.740Z,18.35
2022-10-16T16:08:25.073Z,18.19
2022-10-16T16:11:13.257Z,18.29
2022-10-16T16:13:42.035Z,18.14
2022-10-16T16:16:12.938Z,18.03
2022-10-16T16:18:40.365Z,17.87
2022-10-16T16:21:08.089Z,17.82
2022-10-16T16:23:36.107Z,17.76
2022-10-16T16:26:14.988Z,17.68
2022-10-16T16:28:44.078Z,17.27
2022-10-16T16:31:11.324Z,17.29
2022-10-16T16:33:38.278Z,17.11
2022-10-16T16:36:11.591Z,17.12
2022-10-16T16:38:41.570Z,16.98
2022-10-16T16:41:24.111Z,16.96
2022-10-16T16:43:53.995Z,16.92
2022-10-16T16:46:22.895Z,16.74
2022-10-16T16:48:54.481Z,16.73
2022-10-16T16:51:21.467Z,16.54
2022-10-16T16:53:53.217Z,16.54
2022-10-16T16:56:24.008Z,16.17
2022-10-16T16:58:55.535Z,15.98
2022-10-16T17:01:25.414Z,15.92
2022-10-16T17:03:55.991Z,15.75
2022-10-16T17:06:30.353Z,15.75
2022-10-16T17:08:57.769Z,15.36
2022-10-16T17:11:27.991Z,15.42
2022-10-16T17:13:58.743Z,15.19
2022-10-16T17:16:35.086Z,14.98
2022-10-16T17:19:12.197Z,14.59
2022-10-16T17:21:39.366Z,14.52
2022-10-16T17:24:07.553Z,14.36
2022-10-16T17:26:38.267Z,14.27
2022-10-16T17:29:06.323Z,14.55
2022-10-16T17:31:36.768Z,14.65
2022-10-16T17:34:08.368Z,14.77
2022-10-16T17:36:38.948Z,14.75
2022-10-16T17:39:10.961Z,14.50
2022-10-16T17:41:38.706Z,14.35
2022-10-16T17:44:07.167Z,13.92
2022-10-16T17:46:38.314Z,13.59
2022-10-16T17:49:09.432Z,13.34
2022-10-16T17:51:36.576Z,13.16
2022-10-16T17:54:03.654Z,12.89
2022-10-16T17:56:31.411Z,12.76
2022-10-16T17:59:01.704Z,12.97
2022-10-16T18:01:37.224Z,12.75
2022-10-16T18:04:13.002Z,12.96
2022-10-16T18:06:44.208Z,12.91
2022-10-16T18:09:15.837Z,12.98
2022-10-16T18:11:42.772Z,12.78
2022-10-16T18:14:13.981Z,12.88
2022-10-16T18:16:41.248Z,12.77
2022-10-16T18:19:10.057Z,12.87
2022-10-16T18:21:37.085Z,13.11
2022-10-16T18:24:04.249Z,13.35
2022-10-16T18:26:31.224Z,13.34
2022-10-16T18:28:58.943Z,13.20
2022-10-16T18:31:26.713Z,12.86
2022-10-16T18:33:54.400Z,12.66
2022-10-16T18:36:32.738Z,12.54
2022-10-16T18:39:04.385Z,12.49
2022-10-16T18:41:32.628Z,12.69
2022-10-16T18:43:59.591Z,12.93
2022-10-16T18:46:27.147Z,13.10
2022-10-16T18:48:56.315Z,13.09
2022-10-16T18:51:29.586Z,12.83
2022-10-16T18:54:00.651Z,12.04
2022-10-16T18:56:31.091Z,11.95
2022-10-16T18:59:02.427Z,11.86
2022-10-16T19:01:32.631Z,11.89
2022-10-16T19:04:08.330Z,11.78
2022-10-16T19:06:46.070Z,11.93
2022-10-16T19:09:15.402Z,11.81
2022-10-16T19:11:43.792Z,11.56
2022-10-16T19:14:12.906Z,11.17
2022-10-16T19:16:42.632Z,11.45
2022-10-16T19:19:18.462Z,12.13
2022-10-16T19:21:47.679Z,12.17
2022-10-16T19:24:16.660Z,12.10
2022-10-16T19:26:44.111Z,11.81
2022-10-16T19:29:11.819Z,11.63
2022-10-16T19:31:39.497Z,11.41
2022-10-16T19:34:07.574Z,11.43
2022-10-16T19:36:38.043Z,11.26
2022-10-16T19:39:12.815Z,11.10
2022-10-16T19:41:39.855Z,10.88
2022-10-16T19:44:11.217Z,11.10
2022-10-16T19:46:38.913Z,11.05
2022-10-16T19:49:11.906Z,11.36
2022-10-16T19:51:40.117Z,11.75
2022-10-16T19:54:12.974Z,11.71
2022-10-16T19:56:41.463Z,11.59
2022-10-16T19:59:12.691Z,11.58
2022-10-16T20:01:39.774Z,11.66
2022-10-16T20:04:06.782Z,11.96
2022-10-16T20:06:33.855Z,12.01
2022-10-16T20:09:00.892Z,12.14
2022-10-16T20:11:32.530Z,11.93
2022-10-16T20:14:00.375Z,11.65
2022-10-16T20:16:30.846Z,11.79
2022-10-16T20:18:59.093Z,11.87
2022-10-16T20:21:35.355Z,12.15
2022-10-16T20:24:07.041Z,12.26
2022-10-16T20:26:34.266Z,12.02
2022-10-16T20:29:02.113Z,11.73
2022-10-16T20:31:31.663Z,11.47
2022-10-16T20:34:07.049Z,11.44
2022-10-16T20:36:36.906Z,11.36
2022-10-16T20:39:06.786Z,11.49
2022-10-16T20:41:36.006Z,11.83
2022-10-16T20:44:04.227Z,11.84
2022-10-16T20:46:31.198Z,11.73
2022-10-16T20:49:06.177Z,11.56
2022-10-16T20:51:39.012Z,11.68
2022-10-16T20:54:07.432Z,11.68
2022-10-16T20:56:36.569Z,11.62
2022-10-16T20:59:05.094Z,11.76
2022-10-16T21:01:32.233Z,11.76
2022-10-16T21:04:01.926Z,11.56
2022-10-16T21:06:31.734Z,11.49
2022-10-16T21:09:02.937Z,11.51
2022-10-16T21:11:33.696Z,11.70
2022-10-16T21:14:05.282Z,11.82
2022-10-16T21:16:32.489Z,11.71
2022-10-16T21:18:59.527Z,11.64
2022-10-16T21:21:31.368Z,11.66
2022-10-16T21:23:59.713Z,11.64
2022-10-16T21:26:28.642Z,11.55
2022-10-16T21:29:05.655Z,11.55
2022-10-16T21:31:33.954Z,11.48
2022-10-16T21:34:01.041Z,11.45
2022-10-16T21:36:32.237Z,11.45
2022-10-16T21:39:15.022Z,11.74
2022-10-16T21:41:45.012Z,11.86
2022-10-16T21:44:13.214Z,12.09
2022-10-16T21:46:43.595Z,12.27
2022-10-16T21:49:19.261Z,12.08
2022-10-16T21:51:50.531Z,11.94
2022-10-16T21:54:23.835Z,11.72
2022-10-16T21:56:52.268Z,11.57
2022-10-16T21:59:19.737Z,11.72
2022-10-16T22:01:47.295Z,12.12
2022-10-16T22:04:16.593Z,12.35
2022-10-16T22:06:44.094Z,12.38
2022-10-16T22:09:14.205Z,12.18
2022-10-16T22:11:44.419Z,11.98
2022-10-16T22:14:16.703Z,11.77
2022-10-16T22:16:44.687Z,11.61
2022-10-16T22:19:14.627Z,11.62
2022-10-16T22:21:43.167Z,11.59
2022-10-16T22:24:10.515Z,11.73
2022-10-16T22:26:38.601Z,11.83
2022-10-16T22:29:07.882Z,11.84
2022-10-16T22:31:35.271Z,11.89
2022-10-16T22:34:04.213Z,12.02
2022-10-16T22:36:32.423Z,12.21
2022-10-16T22:38:59.750Z,12.07
2022-10-16T22:41:26.979Z,11.88
2022-10-16T22:43:53.986Z,11.71
2022-10-16T22:46:27.296Z,11.64
2022-10-16T22:48:56.016Z,11.95
2022-10-16T22:51:25.043Z,12.19
2022-10-16T22:53:52.145Z,12.01
2022-10-16T22:56:21.938Z,11.83
2022-10-16T22:58:49.744Z,11.57
2022-10-16T23:01:24.088Z,11.51
2022-10-16T23:03:51.070Z,11.55
2022-10-16T23:06:17.969Z,11.74
2022-10-16T23:08:44.894Z,11.76
2022-10-16T23:11:13.246Z,12.10
2022-10-16T23:13:45.524Z,12.27
2022-10-16T23:16:17.496Z,12.34
2022-10-16T23:18:46.018Z,12.33
2022-10-16T23:21:25.135Z,12.10
2022-10-16T23:23:54.375Z,11.71
2022-10-16T23:26:26.283Z,11.57
2022-10-16T23:28:55.434Z,11.76
2022-10-16T23:31:22.558Z,11.93
2022-10-16T23:33:49.815Z,12.05
2022-10-16T23:36:20.941Z,11.93
2022-10-16T23:38:49.045Z,12.00
2022-10-16T23:41:17.928Z,12.15
2022-10-16T23:43:45.058Z,12.24
2022-10-16T23:46:14.479Z,12.28
2022-10-16T23:48:41.625Z,12.37
2022-10-16T23:51:09.874Z,12.43
2022-10-16T23:53:38.289Z,12.43
2022-10-16T23:56:05.569Z,12.58
2022-10-16T23:58:32.456Z,12.63
